Terminal Aerodrome Forecast
Issued by NWS Albany, NY

Home | Current Version | Previous Version | Text Only | Print | Product List | Glossary On
Versions: 1 2 3 4 5 6 7 8 9 10 11 12 13
000
FTUS41 KALY 311352 AAA
TAFGFL
TAF AMD
KGFL 311352Z 3114/0112 19008KT P6SM VCSH SCT080 BKN120 OVC200
     FM312100 20008KT P6SM VCSH BKN050 OVC090
     FM010000 21004KT 6SM -SHRA BR OVC050
     FM010700 VRB03KT 3SM BR VCSH BKN025 OVC040=

USA.gov is the U.S. government's official web portal to all federal, state and local government web resources and services.